createdAt,value
2018-08-11T00:00:47.419Z,953.58
2018-08-11T00:01:47.405Z,953.59
2018-08-11T00:02:47.404Z,953.59
2018-08-11T00:04:08.408Z,953.56
2018-08-11T00:04:47.400Z,953.57
2018-08-11T00:05:47.395Z,953.58
2018-08-11T00:06:47.394Z,953.59
2018-08-11T00:07:47.386Z,953.54
2018-08-11T00:08:47.384Z,953.54
2018-08-11T00:10:08.385Z,953.53
2018-08-11T00:10:47.376Z,953.55
2018-08-11T00:11:47.372Z,953.53
2018-08-11T00:12:47.444Z,953.51
2018-08-11T00:13:47.364Z,953.52
2018-08-11T00:14:47.362Z,953.51
2018-08-11T00:16:08.365Z,953.49
2018-08-11T00:16:47.348Z,953.49
2018-08-11T00:17:47.354Z,953.48
2018-08-11T00:18:47.344Z,953.48
2018-08-11T00:19:47.339Z,953.48
2018-08-11T00:20:47.339Z,953.44
2018-08-11T00:22:08.343Z,953.46
2018-08-11T00:22:47.330Z,953.48
2018-08-11T00:23:47.328Z,953.48
2018-08-11T00:24:47.329Z,953.47
2018-08-11T00:25:47.320Z,953.48
2018-08-11T00:26:47.319Z,953.47
2018-08-11T00:28:08.357Z,953.44
2018-08-11T00:28:47.337Z,953.47
2018-08-11T00:29:47.307Z,953.47
2018-08-11T00:30:47.301Z,953.52
2018-08-11T00:31:47.299Z,953.49
2018-08-11T00:32:47.294Z,953.48
2018-08-11T00:34:08.296Z,953.46
2018-08-11T00:34:47.289Z,953.50
2018-08-11T00:35:47.288Z,953.48
2018-08-11T00:36:47.320Z,953.49
2018-08-11T00:37:47.276Z,953.47
2018-08-11T00:38:47.272Z,953.48
2018-08-11T00:40:08.275Z,953.45
2018-08-11T00:40:47.281Z,953.44
2018-08-11T00:41:47.262Z,953.47
2018-08-11T00:42:47.302Z,953.46
2018-08-11T00:43:47.254Z,953.46
2018-08-11T00:44:47.253Z,953.43
2018-08-11T00:46:08.254Z,953.44
2018-08-11T00:46:47.245Z,953.46
2018-08-11T00:47:47.240Z,953.43
2018-08-11T00:48:47.237Z,953.40
2018-08-11T00:49:47.231Z,953.38
2018-08-11T00:50:47.227Z,953.43
2018-08-11T00:52:08.232Z,953.41
2018-08-11T00:52:47.221Z,953.40
2018-08-11T00:53:47.250Z,953.38
2018-08-11T00:54:47.215Z,953.41
2018-08-11T00:55:47.232Z,953.41
2018-08-11T00:56:47.227Z,953.42
2018-08-11T00:58:08.222Z,953.37
2018-08-11T00:58:47.231Z,953.38
2018-08-11T00:59:47.194Z,953.40
2018-08-11T01:00:47.189Z,953.37
2018-08-11T01:01:47.188Z,953.39
2018-08-11T01:02:47.177Z,953.39
2018-08-11T01:04:08.185Z,953.39
2018-08-11T01:04:47.175Z,953.43
2018-08-11T01:05:47.173Z,953.39
2018-08-11T01:06:47.166Z,953.37
2018-08-11T01:07:47.166Z,953.35
2018-08-11T01:08:47.163Z,953.40
2018-08-11T01:10:08.195Z,953.38
2018-08-11T01:10:47.197Z,953.35
2018-08-11T01:11:47.147Z,953.38
2018-08-11T01:12:47.223Z,953.37
2018-08-11T01:13:47.141Z,953.33
2018-08-11T01:14:47.143Z,953.36
2018-08-11T01:16:08.139Z,953.38
2018-08-11T01:16:47.131Z,953.35
2018-08-11T01:17:47.126Z,953.33
2018-08-11T01:18:47.123Z,953.35
2018-08-11T01:19:47.121Z,953.33
2018-08-11T01:20:47.115Z,953.37
2018-08-11T01:22:08.115Z,953.33
2018-08-11T01:22:47.120Z,953.32
2018-08-11T01:23:47.098Z,953.31
2018-08-11T01:24:47.104Z,953.36
2018-08-11T01:25:47.102Z,953.34
2018-08-11T01:26:47.110Z,953.35
2018-08-11T01:28:08.112Z,953.35
2018-08-11T01:28:47.124Z,953.35
2018-08-11T01:29:47.081Z,953.35
2018-08-11T01:30:47.081Z,953.30
2018-08-11T02:04:13.100Z,953.37
2018-08-11T02:05:13.071Z,953.40
2018-08-11T02:07:05.979Z,953.40
2018-08-11T02:08:05.950Z,953.42
2018-08-11T02:09:59.104Z,953.46
2018-08-11T02:10:59.079Z,953.46
2018-08-11T02:12:52.089Z,953.50
2018-08-11T02:13:52.080Z,953.46
2018-08-11T02:14:52.061Z,953.45
2018-08-11T02:15:52.057Z,953.45
2018-08-11T02:16:52.046Z,953.46
2018-08-11T02:17:52.043Z,953.48
2018-08-11T02:18:52.073Z,953.43
2018-08-11T02:19:52.032Z,953.45
2018-08-11T02:20:52.030Z,953.46
2018-08-11T02:21:52.028Z,953.46
2018-08-11T02:22:52.019Z,953.44
2018-08-11T02:23:52.021Z,953.45
2018-08-11T02:24:52.091Z,953.45
2018-08-11T02:25:52.009Z,953.48
2018-08-11T02:26:52.005Z,953.47
2018-08-11T02:27:52.007Z,953.47
2018-08-11T02:28:51.990Z,953.47
2018-08-11T02:29:51.988Z,953.42
2018-08-11T02:30:51.990Z,953.44
2018-08-11T02:31:51.994Z,953.43
2018-08-11T02:32:51.974Z,953.42
2018-08-11T02:33:51.975Z,953.46
2018-08-11T02:34:51.970Z,953.42
2018-08-11T02:35:52.016Z,953.43
2018-08-11T02:36:52.054Z,953.42
2018-08-11T02:37:51.959Z,953.45
2018-08-11T02:38:51.958Z,953.39
2018-08-11T02:39:51.966Z,953.43
2018-08-11T02:40:51.943Z,953.43
2018-08-11T02:41:51.941Z,953.46
2018-08-11T02:42:51.937Z,953.43
2018-08-11T02:43:51.924Z,953.42
2018-08-11T02:44:51.928Z,953.44
2018-08-11T02:45:51.930Z,953.42
2018-08-11T02:46:51.912Z,953.43
2018-08-11T02:47:51.920Z,953.45
2018-08-11T02:48:51.930Z,953.45
2018-08-11T02:49:51.942Z,953.45
2018-08-11T02:50:51.907Z,953.45
2018-08-11T02:51:51.903Z,953.46
2018-08-11T02:52:51.899Z,953.45
2018-08-11T02:53:51.905Z,953.50
2018-08-11T02:54:51.891Z,953.46
2018-08-11T02:55:51.888Z,953.45
2018-08-11T02:56:51.888Z,953.49
2018-08-11T02:57:51.879Z,953.48
2018-08-11T02:58:51.875Z,953.49
2018-08-11T02:59:51.876Z,953.48
2018-08-11T03:00:51.871Z,953.49
2018-08-11T03:01:51.888Z,953.50
2018-08-11T03:02:51.866Z,953.47
2018-08-11T03:03:51.848Z,953.46
2018-08-11T03:04:51.854Z,953.50
2018-08-11T03:05:51.845Z,953.51
2018-08-11T03:06:51.848Z,953.49
2018-08-11T03:07:51.840Z,953.49
2018-08-11T03:08:51.851Z,953.50
2018-08-11T03:09:51.830Z,953.50
2018-08-11T03:10:51.830Z,953.51
2018-08-11T03:11:51.819Z,953.50
2018-08-11T03:12:51.818Z,953.51
2018-08-11T03:13:51.880Z,953.55
2018-08-11T03:14:51.826Z,953.58
2018-08-11T03:15:51.813Z,953.57
2018-08-11T03:16:51.806Z,953.55
2018-08-11T03:17:51.804Z,953.59
2018-08-11T03:18:51.799Z,953.58
2018-08-11T03:19:51.794Z,953.58
2018-08-11T03:20:51.782Z,953.62
2018-08-11T03:21:51.786Z,953.62
2018-08-11T03:22:51.783Z,953.63
2018-08-11T03:23:51.780Z,953.59
2018-08-11T03:24:51.803Z,953.59
2018-08-11T03:25:51.770Z,953.60
2018-08-11T03:26:51.794Z,953.59
2018-08-11T03:27:51.763Z,953.58
2018-08-11T03:28:51.760Z,953.58
2018-08-11T03:29:51.756Z,953.60
2018-08-11T03:30:51.762Z,953.60
2018-08-11T03:31:51.745Z,953.65
2018-08-11T03:32:51.774Z,953.62
2018-08-11T03:33:51.742Z,953.61
2018-08-11T03:34:51.735Z,953.63
2018-08-11T03:35:51.735Z,953.63
2018-08-11T03:36:51.734Z,953.65
2018-08-11T03:37:51.719Z,953.68
2018-08-11T03:38:51.720Z,953.68
2018-08-11T03:39:51.718Z,953.71
2018-08-11T03:40:51.713Z,953.71
2018-08-11T03:41:51.705Z,953.72
2018-08-11T03:42:51.709Z,953.70
2018-08-11T03:43:51.846Z,953.72
2018-08-11T03:44:51.702Z,953.74
2018-08-11T03:45:51.690Z,953.73
2018-08-11T03:46:51.691Z,953.76
2018-08-11T03:47:51.699Z,953.80
2018-08-11T03:48:51.688Z,953.81
2018-08-11T03:49:51.679Z,953.82
2018-08-11T03:50:51.673Z,953.82
2018-08-11T03:51:51.670Z,953.85
2018-08-11T03:52:51.668Z,953.85
2018-08-11T03:53:51.653Z,953.86
2018-08-11T03:54:51.658Z,953.81
2018-08-11T03:55:51.654Z,953.87
2018-08-11T03:56:51.651Z,953.88
2018-08-11T03:57:51.663Z,953.92
2018-08-11T03:58:51.745Z,953.89
2018-08-11T03:59:51.638Z,953.91
2018-08-11T04:00:51.637Z,953.91
2018-08-11T04:01:51.649Z,953.86
2018-08-11T04:02:51.630Z,953.88
2018-08-11T04:03:51.627Z,953.92
2018-08-11T04:04:51.661Z,953.92
2018-08-11T04:05:51.619Z,953.94
2018-08-11T04:06:51.613Z,953.90
2018-08-11T04:07:51.612Z,953.93
2018-08-11T04:08:51.614Z,953.94
2018-08-11T04:09:51.601Z,953.93
2018-08-11T04:10:51.598Z,953.93
2018-08-11T04:11:51.590Z,953.97
2018-08-11T04:12:51.593Z,953.98
2018-08-11T04:13:51.589Z,953.94
2018-08-11T04:14:51.596Z,953.97
2018-08-11T04:15:51.584Z,953.96
2018-08-11T04:16:51.576Z,953.98
2018-08-11T04:17:51.565Z,953.99
2018-08-11T04:18:51.569Z,954.01
2018-08-11T04:19:51.567Z,954.00
2018-08-11T04:20:51.564Z,954.01
2018-08-11T04:21:51.578Z,954.01
2018-08-11T04:22:51.556Z,954.03
2018-08-11T04:23:51.548Z,954.01
2018-08-11T04:24:51.545Z,953.99
2018-08-11T04:25:51.548Z,953.98
2018-08-11T04:26:51.538Z,954.02
2018-08-11T04:27:51.539Z,954.02
2018-08-11T04:28:51.529Z,954.06
2018-08-11T04:29:51.527Z,954.02
2018-08-11T04:30:51.544Z,954.06
2018-08-11T04:31:51.520Z,954.07
2018-08-11T04:32:51.573Z,954.04
2018-08-11T04:33:51.513Z,954.02
2018-08-11T04:34:51.511Z,954.06
2018-08-11T04:35:51.506Z,954.06
2018-08-11T04:36:51.501Z,954.10
2018-08-11T04:37:51.500Z,954.10
2018-08-11T04:38:51.506Z,954.16
2018-08-11T04:39:51.508Z,954.18
2018-08-11T04:40:51.488Z,954.16
2018-08-11T04:41:51.485Z,954.17
2018-08-11T04:42:51.483Z,954.18
2018-08-11T04:43:51.476Z,954.19
2018-08-11T04:44:51.473Z,954.21
2018-08-11T04:45:51.464Z,954.25
2018-08-11T04:46:51.468Z,954.21
2018-08-11T04:47:51.668Z,954.26
2018-08-11T04:48:51.464Z,954.25
2018-08-11T04:49:51.457Z,954.26
2018-08-11T04:50:51.455Z,954.23
2018-08-11T04:51:51.444Z,954.26
2018-08-11T04:52:51.447Z,954.28
2018-08-11T04:53:51.444Z,954.21
2018-08-11T04:54:51.443Z,954.25
2018-08-11T04:55:51.463Z,954.27
2018-08-11T04:56:51.435Z,954.27
2018-08-11T04:57:51.441Z,954.29
2018-08-11T04:58:51.434Z,954.26
2018-08-11T04:59:51.447Z,954.30
2018-08-11T05:00:51.444Z,954.30
2018-08-11T05:01:51.422Z,954.31
2018-08-11T05:02:51.412Z,954.33
2018-08-11T05:03:51.415Z,954.34
2018-08-11T05:04:51.410Z,954.37
2018-08-11T05:05:51.405Z,954.38
2018-08-11T05:06:51.409Z,954.38
2018-08-11T05:07:51.408Z,954.39
2018-08-11T05:08:51.502Z,954.36
2018-08-11T05:09:51.395Z,954.36
2018-08-11T05:10:51.395Z,954.35
2018-08-11T05:11:51.393Z,954.38
2018-08-11T05:12:51.421Z,954.38
2018-08-11T05:13:51.382Z,954.35
2018-08-11T05:14:51.383Z,954.36
2018-08-11T05:15:51.380Z,954.38
2018-08-11T05:16:51.375Z,954.37
2018-08-11T05:17:51.371Z,954.40
2018-08-11T05:18:51.374Z,954.41
2018-08-11T05:19:51.382Z,954.44
2018-08-11T05:20:51.364Z,954.44
2018-08-11T05:21:51.363Z,954.44
2018-08-11T05:22:51.361Z,954.44
2018-08-11T05:23:51.365Z,954.45
2018-08-11T05:24:51.355Z,954.47
2018-08-11T05:25:51.352Z,954.51
2018-08-11T05:26:51.348Z,954.48
2018-08-11T05:27:51.368Z,954.49
2018-08-11T05:28:51.340Z,954.50
2018-08-11T05:29:51.340Z,954.52
2018-08-11T05:30:51.329Z,954.53
2018-08-11T05:31:51.335Z,954.60
2018-08-11T05:32:51.350Z,954.60
2018-08-11T05:33:51.333Z,954.57
2018-08-11T05:34:51.326Z,954.61
2018-08-11T05:35:51.340Z,954.61
2018-08-11T05:36:51.324Z,954.59
2018-08-11T05:37:51.313Z,954.63
2018-08-11T05:38:51.315Z,954.66
2018-08-11T05:39:51.315Z,954.64
2018-08-11T05:40:51.314Z,954.67
2018-08-11T05:41:51.376Z,954.69
2018-08-11T05:42:51.308Z,954.71
2018-08-11T05:43:51.306Z,954.72
2018-08-11T05:44:51.311Z,954.72
2018-08-11T05:45:51.305Z,954.72
2018-08-11T05:46:51.302Z,954.74
2018-08-11T05:47:51.308Z,954.75
2018-08-11T05:48:51.296Z,954.73
2018-08-11T05:49:51.293Z,954.77
2018-08-11T05:50:51.304Z,954.77
2018-08-11T05:51:51.287Z,954.77
2018-08-11T05:52:51.288Z,954.82
2018-08-11T05:53:51.295Z,954.79
2018-08-11T05:54:51.286Z,954.79
2018-08-11T05:55:51.286Z,954.82
2018-08-11T05:56:51.283Z,954.82
2018-08-11T05:57:51.279Z,954.82
2018-08-11T05:58:51.290Z,954.81
2018-08-11T05:59:51.275Z,954.81
2018-08-11T06:00:51.266Z,954.83
2018-08-11T06:01:51.280Z,954.82
2018-08-11T06:02:51.269Z,954.83
2018-08-11T06:03:51.280Z,954.84
2018-08-11T06:04:51.335Z,954.87
2018-08-11T06:05:51.267Z,954.89
2018-08-11T06:06:51.265Z,954.90
2018-08-11T06:07:51.264Z,954.89
2018-08-11T06:08:51.264Z,954.88
2018-08-11T06:09:51.267Z,954.91
2018-08-11T06:10:51.260Z,954.91
2018-08-11T06:11:51.262Z,954.96
2018-08-11T06:12:51.253Z,954.93
2018-08-11T06:13:51.256Z,954.97
2018-08-11T06:14:51.258Z,954.97
2018-08-11T06:15:51.258Z,954.99
2018-08-11T06:16:51.255Z,954.98
2018-08-11T06:17:51.260Z,954.99
2018-08-11T06:18:51.253Z,954.97
2018-08-11T06:19:51.255Z,954.98
2018-08-11T06:20:51.256Z,954.94
2018-08-11T06:21:51.446Z,954.95
2018-08-11T06:22:51.244Z,954.94
2018-08-11T06:23:51.264Z,954.95
2018-08-11T06:24:51.270Z,954.95
2018-08-11T06:25:51.253Z,954.98
2018-08-11T06:26:51.266Z,954.96
2018-08-11T06:27:51.255Z,954.95
2018-08-11T06:28:51.245Z,954.96
2018-08-11T06:29:51.251Z,954.95
2018-08-11T06:30:51.265Z,954.96
2018-08-11T06:31:51.370Z,954.99
2018-08-11T06:32:51.246Z,954.96
2018-08-11T06:33:51.318Z,954.96
2018-08-11T06:34:51.270Z,955.01
2018-08-11T06:35:51.250Z,955.01
2018-08-11T06:36:51.275Z,954.97
2018-08-11T06:37:51.239Z,955.00
2018-08-11T06:38:51.273Z,954.99
2018-08-11T06:39:51.239Z,955.00
2018-08-11T06:40:51.392Z,955.05
2018-08-11T06:41:51.259Z,955.06
2018-08-11T06:42:51.250Z,955.06
2018-08-11T06:43:51.245Z,955.07
2018-08-11T06:44:51.268Z,955.07
2018-08-11T06:45:51.245Z,955.07
2018-08-11T06:46:51.328Z,955.08
2018-08-11T06:47:51.249Z,955.10
2018-08-11T06:48:51.248Z,955.07
2018-08-11T06:49:51.271Z,955.06
2018-08-11T06:50:51.257Z,955.08
2018-08-11T06:51:51.242Z,955.05
2018-08-11T06:52:51.254Z,955.05
2018-08-11T06:53:51.265Z,955.05
2018-08-11T06:54:51.269Z,955.08
2018-08-11T06:55:51.288Z,955.08
2018-08-11T06:56:51.325Z,955.07
2018-08-11T06:57:51.271Z,955.07
2018-08-11T06:58:51.300Z,955.04
2018-08-11T06:59:51.295Z,955.06
2018-08-11T07:00:51.311Z,955.07
2018-08-11T07:01:51.279Z,955.06
2018-08-11T07:02:51.314Z,955.10
2018-08-11T07:03:51.332Z,955.07
2018-08-11T07:04:51.342Z,955.12
2018-08-11T07:05:51.372Z,955.10
2018-08-11T07:06:51.422Z,955.09
2018-08-11T07:07:51.353Z,955.10
2018-08-11T07:08:51.364Z,955.05
2018-08-11T07:09:51.339Z,955.09
2018-08-11T07:10:51.379Z,955.09
2018-08-11T07:11:51.385Z,955.08
2018-08-11T07:12:51.302Z,955.11
2018-08-11T07:13:51.312Z,955.10
2018-08-11T07:14:51.327Z,955.09
2018-08-11T07:15:51.346Z,955.11
2018-08-11T07:16:51.413Z,955.12
2018-08-11T07:17:51.422Z,955.12
2018-08-11T07:18:51.429Z,955.10
2018-08-11T07:19:51.351Z,955.09
2018-08-11T07:20:51.342Z,955.10
2018-08-11T07:21:51.325Z,955.07
2018-08-11T07:22:51.335Z,955.12
2018-08-11T07:23:51.336Z,955.09
2018-08-11T07:24:51.326Z,955.12
2018-08-11T07:25:51.408Z,955.07
2018-08-11T07:26:51.458Z,955.13
2018-08-11T07:27:51.392Z,955.13
2018-08-11T07:28:51.397Z,955.10
2018-08-11T07:29:52.033Z,955.11
2018-08-11T07:30:51.323Z,955.11
2018-08-11T07:31:51.516Z,955.10
2018-08-11T07:32:51.348Z,955.12
2018-08-11T07:33:51.381Z,955.09
2018-08-11T07:34:51.339Z,955.05
2018-08-11T07:35:51.337Z,955.07
2018-08-11T07:36:51.358Z,955.11
2018-08-11T07:37:51.342Z,955.08
2018-08-11T07:38:51.361Z,955.07
2018-08-11T07:39:51.350Z,955.09
2018-08-11T07:40:51.363Z,955.16
2018-08-11T07:41:51.355Z,955.25
2018-08-11T07:42:51.374Z,955.25
2018-08-11T07:43:51.388Z,955.24
2018-08-11T07:44:51.352Z,955.22
2018-08-11T07:45:51.365Z,955.23
2018-08-11T07:46:51.369Z,955.25
2018-08-11T07:47:51.401Z,955.26
2018-08-11T07:48:51.389Z,955.25
2018-08-11T07:49:51.386Z,955.24
2018-08-11T07:50:51.392Z,955.24
2018-08-11T07:51:51.405Z,955.22
2018-08-11T07:52:51.402Z,955.25
2018-08-11T07:53:51.408Z,955.27
2018-08-11T07:54:51.436Z,955.27
2018-08-11T07:55:51.468Z,955.31
2018-08-11T07:56:51.474Z,955.30
2018-08-11T07:57:51.483Z,955.27
2018-08-11T07:58:51.483Z,955.33
2018-08-11T07:59:51.472Z,955.26
2018-08-11T08:00:51.479Z,955.28
2018-08-11T08:01:51.491Z,955.27
2018-08-11T08:02:51.501Z,955.27
2018-08-11T08:03:51.520Z,955.29
2018-08-11T08:04:51.522Z,955.25
2018-08-11T08:05:51.551Z,955.30
2018-08-11T08:06:51.547Z,955.31
2018-08-11T08:07:51.564Z,955.31
2018-08-11T08:08:51.573Z,955.35
2018-08-11T08:09:51.587Z,955.34
2018-08-11T08:10:51.605Z,955.34
2018-08-11T08:11:51.615Z,955.32
2018-08-11T08:12:51.617Z,955.34
2018-08-11T08:13:51.624Z,955.29
2018-08-11T08:14:51.640Z,955.29
2018-08-11T08:15:51.654Z,955.31
2018-08-11T08:16:51.657Z,955.32
2018-08-11T08:17:51.669Z,955.28
2018-08-11T08:18:51.684Z,955.34
2018-08-11T08:19:51.703Z,955.32
2018-08-11T08:20:51.715Z,955.28
2018-08-11T08:21:51.730Z,955.28
2018-08-11T08:22:51.744Z,955.28
2018-08-11T08:23:51.753Z,955.29
2018-08-11T08:24:51.768Z,955.28
2018-08-11T08:25:51.781Z,955.28
2018-08-11T08:26:51.837Z,955.28
2018-08-11T08:27:51.821Z,955.28
2018-08-11T08:28:51.831Z,955.27
2018-08-11T08:29:52.016Z,955.26
2018-08-11T08:30:51.870Z,955.27
2018-08-11T08:31:51.879Z,955.24
2018-08-11T08:32:51.885Z,955.25
2018-08-11T08:33:51.925Z,955.26
2018-08-11T08:34:51.905Z,955.31
2018-08-11T08:35:51.943Z,955.26
2018-08-11T08:36:51.936Z,955.27
2018-08-11T08:37:51.959Z,955.26
2018-08-11T08:38:51.968Z,955.28
2018-08-11T08:39:51.976Z,955.23
2018-08-11T08:40:52.008Z,955.23
2018-08-11T08:41:52.039Z,955.25
2018-08-11T08:42:52.028Z,955.23
2018-08-11T08:43:52.043Z,955.19
2018-08-11T08:44:52.055Z,955.26
2018-08-11T08:45:52.057Z,955.20
2018-08-11T08:46:52.086Z,955.16
2018-08-11T08:47:52.100Z,955.19
2018-08-11T08:48:52.113Z,955.21
2018-08-11T08:49:52.128Z,955.21
2018-08-11T08:50:52.149Z,955.21
2018-08-11T08:51:52.157Z,955.19
2018-08-11T08:52:52.172Z,955.25
2018-08-11T08:53:52.180Z,955.18
2018-08-11T08:54:52.197Z,955.10
2018-08-11T08:55:52.220Z,955.12
2018-08-11T08:56:52.231Z,955.24
2018-08-11T08:57:52.291Z,955.22
2018-08-11T08:58:52.268Z,955.21
2018-08-11T08:59:52.278Z,955.22
2018-08-11T09:00:52.295Z,955.18
2018-08-11T09:01:52.313Z,955.15
2018-08-11T09:02:52.314Z,955.11
2018-08-11T09:03:52.343Z,955.13
2018-08-11T09:04:52.359Z,955.23
2018-08-11T09:05:52.373Z,955.18
2018-08-11T09:06:52.379Z,955.17
2018-08-11T09:07:52.394Z,955.18
2018-08-11T09:08:52.416Z,955.15
2018-08-11T09:09:52.433Z,955.11
2018-08-11T09:10:52.453Z,955.04
2018-08-11T09:11:52.494Z,955.11
2018-08-11T09:12:52.479Z,955.17
2018-08-11T09:13:52.515Z,955.05
2018-08-11T09:14:52.513Z,955.08
2018-08-11T09:15:52.544Z,955.03
2018-08-11T09:16:52.536Z,955.13
2018-08-11T09:17:52.556Z,955.06
2018-08-11T09:18:52.569Z,955.01
2018-08-11T09:19:52.594Z,955.06
2018-08-11T09:20:52.597Z,955.04
2018-08-11T09:21:52.669Z,954.95
2018-08-11T09:22:52.621Z,954.97
2018-08-11T09:23:52.633Z,954.98
2018-08-11T09:24:52.646Z,954.97
2018-08-11T09:25:52.662Z,954.92
2018-08-11T09:26:52.672Z,954.98
2018-08-11T09:27:52.687Z,955.01
2018-08-11T09:28:52.692Z,955.09
2018-08-11T09:29:52.714Z,955.05
2018-08-11T09:30:52.728Z,955.08
2018-08-11T09:31:52.744Z,954.99
2018-08-11T09:32:52.753Z,954.99
2018-08-11T09:33:52.747Z,954.99
2018-08-11T09:34:52.766Z,954.99
2018-08-11T09:35:52.883Z,955.04
2018-08-11T09:36:52.786Z,955.02
2018-08-11T09:37:52.799Z,954.95
2018-08-11T09:38:52.826Z,954.95
2018-08-11T09:39:52.826Z,954.94
2018-08-11T09:40:52.862Z,954.95
2018-08-11T09:41:52.854Z,954.93
2018-08-11T09:42:52.999Z,954.93
2018-08-11T09:43:52.882Z,954.92
2018-08-11T09:44:52.894Z,954.89
2018-08-11T09:45:52.937Z,954.90
2018-08-11T09:46:52.923Z,954.91
2018-08-11T09:47:52.937Z,954.87
2018-08-11T09:48:52.953Z,954.88
2018-08-11T09:49:52.967Z,954.86
2018-08-11T09:50:52.989Z,954.87
2018-08-11T09:51:53.127Z,954.85
2018-08-11T09:52:53.004Z,954.83
2018-08-11T09:53:53.019Z,954.81
2018-08-11T09:54:53.047Z,954.79
2018-08-11T09:55:53.059Z,954.73
2018-08-11T09:56:53.076Z,954.78
2018-08-11T09:57:53.092Z,954.75
2018-08-11T09:58:53.105Z,954.79
2018-08-11T09:59:53.119Z,954.75
2018-08-11T10:00:53.137Z,954.81
2018-08-11T10:01:53.159Z,954.81
2018-08-11T10:02:53.169Z,954.86
2018-08-11T10:03:53.178Z,954.81
2018-08-11T10:04:53.198Z,954.77
2018-08-11T10:05:53.213Z,954.84
2018-08-11T10:06:53.230Z,954.83
2018-08-11T10:07:53.243Z,954.82
2018-08-11T10:08:53.259Z,954.84
2018-08-11T10:09:53.266Z,954.85
2018-08-11T10:10:53.290Z,954.85
2018-08-11T10:11:53.302Z,954.88
2018-08-11T10:12:53.318Z,954.87
2018-08-11T10:13:53.332Z,954.89
2018-08-11T10:14:53.355Z,954.86
2018-08-11T10:15:53.362Z,954.84
2018-08-11T10:16:53.382Z,954.83
2018-08-11T10:17:53.389Z,954.77
2018-08-11T10:18:53.426Z,954.74
2018-08-11T10:19:53.424Z,954.77
2018-08-11T10:20:53.442Z,954.81
2018-08-11T10:21:53.456Z,954.80
2018-08-11T10:22:53.461Z,954.76
2018-08-11T10:23:53.477Z,954.73
2018-08-11T10:24:53.494Z,954.74
2018-08-11T10:25:53.499Z,954.72
2018-08-11T10:26:53.514Z,954.78
2018-08-11T10:27:53.549Z,954.79
2018-08-11T10:28:53.542Z,954.76
2018-08-11T10:29:53.559Z,954.73
2018-08-11T10:30:53.583Z,954.73
2018-08-11T10:31:53.580Z,954.64
2018-08-11T10:32:53.599Z,954.69
2018-08-11T10:33:53.611Z,954.73
2018-08-11T10:34:53.626Z,954.73
2018-08-11T10:35:53.637Z,954.71
2018-08-11T10:36:53.651Z,954.73
2018-08-11T10:37:53.667Z,954.73
2018-08-11T10:39:53.721Z,954.67
2018-08-11T10:40:53.720Z,954.68
2018-08-11T10:41:53.722Z,954.70
2018-08-11T10:42:53.737Z,954.77
2018-08-11T10:43:53.748Z,954.71
2018-08-11T10:44:53.760Z,954.63
2018-08-11T10:46:14.817Z,954.64
2018-08-11T10:46:53.803Z,954.62
2018-08-11T10:47:53.796Z,954.61
2018-08-11T10:48:53.822Z,954.68
2018-08-11T10:49:53.818Z,954.65
2018-08-11T10:50:53.851Z,954.67
2018-08-11T10:52:14.851Z,954.66
2018-08-11T10:52:53.853Z,954.61
2018-08-11T10:53:53.863Z,954.61
2018-08-11T10:54:53.867Z,954.61
2018-08-11T10:55:53.949Z,954.59
2018-08-11T10:56:53.888Z,954.57
2018-08-11T10:58:14.938Z,954.60
2018-08-11T10:58:53.910Z,954.61
2018-08-11T10:59:53.929Z,954.65
2018-08-11T11:00:53.928Z,954.64
2018-08-11T11:01:53.938Z,954.59
2018-08-11T11:02:53.950Z,954.63
2018-08-11T11:04:14.969Z,954.61
2018-08-11T11:04:53.969Z,954.65
2018-08-11T11:05:53.982Z,954.62
2018-08-11T11:06:53.987Z,954.61
2018-08-11T11:07:54.009Z,954.64
2018-08-11T11:08:54.019Z,954.60
2018-08-11T11:10:15.036Z,954.57
2018-08-11T11:10:54.064Z,954.59
2018-08-11T11:11:54.045Z,954.61
2018-08-11T11:12:54.069Z,954.55
2018-08-11T11:13:54.061Z,954.62
2018-08-11T11:14:54.075Z,954.60
2018-08-11T11:16:15.098Z,954.57
2018-08-11T11:16:54.104Z,954.56
2018-08-11T11:17:54.109Z,954.57
2018-08-11T11:18:54.117Z,954.60
2018-08-11T11:19:54.129Z,954.56
2018-08-11T11:20:54.202Z,954.54
2018-08-11T11:22:15.167Z,954.57
2018-08-11T11:22:54.179Z,954.61
2018-08-11T11:23:54.195Z,954.58
2018-08-11T11:24:54.191Z,954.57
2018-08-11T11:25:54.203Z,954.54
2018-08-11T11:26:54.212Z,954.56
2018-08-11T11:28:15.239Z,954.48
2018-08-11T11:28:54.238Z,954.54
2018-08-11T11:29:54.254Z,954.50
2018-08-11T11:30:54.263Z,954.47
2018-08-11T11:31:54.277Z,954.50
2018-08-11T11:32:54.285Z,954.49
2018-08-11T11:34:15.309Z,954.54
2018-08-11T11:34:54.317Z,954.51
2018-08-11T11:35:54.320Z,954.53
2018-08-11T11:36:54.332Z,954.53
2018-08-11T11:37:54.446Z,954.58
2018-08-11T11:38:54.364Z,954.57
2018-08-11T11:40:15.385Z,954.51
2018-08-11T11:40:54.385Z,954.47
2018-08-11T11:41:54.390Z,954.49
2018-08-11T11:42:54.416Z,954.46
2018-08-11T11:43:54.419Z,954.45
2018-08-11T11:44:54.434Z,954.43
2018-08-11T11:46:16.157Z,954.46
2018-08-11T11:46:54.460Z,954.45
2018-08-11T11:47:54.474Z,954.47
2018-08-11T11:48:54.486Z,954.39
2018-08-11T11:49:54.515Z,954.37
2018-08-11T11:50:54.506Z,954.39
2018-08-11T11:52:15.551Z,954.40
2018-08-11T11:52:54.543Z,954.42
2018-08-11T11:53:54.539Z,954.35
2018-08-11T11:54:54.557Z,954.40
2018-08-11T11:55:54.581Z,954.39
2018-08-11T11:56:54.594Z,954.45
2018-08-11T11:58:15.627Z,954.41
2018-08-11T11:58:54.613Z,954.39
2018-08-11T11:59:54.662Z,954.34
2018-08-11T12:00:54.658Z,954.36
2018-08-11T12:01:54.659Z,954.33
2018-08-11T12:02:54.665Z,954.34
2018-08-11T12:04:16.650Z,954.38
2018-08-11T12:04:54.721Z,954.36
2018-08-11T12:05:55.660Z,954.37
2018-08-11T12:06:54.718Z,954.33
2018-08-11T12:07:54.733Z,954.35
2018-08-11T12:08:54.757Z,954.27
2018-08-11T12:10:15.778Z,954.34
2018-08-11T12:10:54.789Z,954.30
2018-08-11T12:11:54.800Z,954.30
2018-08-11T12:12:54.815Z,954.31
2018-08-11T12:13:54.856Z,954.29
2018-08-11T12:14:54.842Z,954.23
2018-08-11T12:16:15.879Z,954.27
2018-08-11T12:16:54.884Z,954.20
2018-08-11T12:17:54.903Z,954.18
2018-08-11T12:18:54.907Z,954.18
2018-08-11T12:19:54.916Z,954.16
2018-08-11T12:20:54.957Z,954.18
2018-08-11T12:22:15.988Z,954.15
2018-08-11T12:22:54.958Z,954.15
2018-08-11T12:23:54.977Z,954.13
2018-08-11T12:24:54.987Z,954.12
2018-08-11T12:25:55.003Z,954.06
2018-08-11T12:26:55.033Z,954.06
2018-08-11T12:28:16.054Z,953.98
2018-08-11T12:28:55.048Z,954.03
2018-08-11T12:29:55.067Z,954.04
2018-08-11T12:30:55.084Z,953.95
2018-08-11T12:31:55.100Z,953.98
2018-08-11T12:32:55.111Z,954.02
2018-08-11T12:34:16.145Z,953.97
2018-08-11T12:34:55.154Z,953.95
2018-08-11T12:35:55.156Z,953.91
2018-08-11T12:36:55.182Z,953.88
2018-08-11T12:37:55.252Z,953.83
2018-08-11T12:38:55.201Z,953.78
2018-08-11T12:40:16.224Z,953.76
2018-08-11T12:40:55.223Z,953.71
2018-08-11T12:41:55.228Z,953.74
2018-08-11T12:42:55.246Z,953.68
2018-08-11T12:43:55.252Z,953.67
2018-08-11T12:44:55.269Z,953.69
2018-08-11T12:46:16.288Z,953.67
2018-08-11T12:46:55.290Z,953.62
2018-08-11T12:47:55.288Z,953.64
2018-08-11T12:48:55.294Z,953.67
2018-08-11T12:49:56.200Z,953.68
2018-08-11T12:50:55.312Z,953.65
2018-08-11T12:52:16.324Z,953.67
2018-08-11T12:52:55.324Z,953.66
2018-08-11T12:53:55.333Z,953.65
2018-08-11T12:54:55.338Z,953.59
2018-08-11T12:55:55.353Z,953.56
2018-08-11T12:56:55.355Z,953.56
2018-08-11T12:58:16.366Z,953.55
2018-08-11T12:58:55.375Z,953.51
2018-08-11T12:59:55.365Z,953.56
2018-08-11T13:00:55.384Z,953.51
2018-08-11T13:01:55.383Z,953.52
2018-08-11T13:02:55.385Z,953.55
2018-08-11T13:04:16.396Z,953.54
2018-08-11T13:04:55.389Z,953.51